Time;durP1;ratioP1;P1;durP2;ratioP2;P2;SDS_P1;SDS_P2;PMS_P1;PMS_P2;Temp;Humidity;BMP_temperature;BMP_pressure;BME280_temperature;BME280_humidity;BME280_pressure;Samples;Min_cycle;Max_cycle;Signal;HPM_P1;HPM_P2
2021/06/05 00:00:16;;;;;;;14.30;13.15;;;22.00;99.90;;;;;;4932820;29;20283;-83
2021/06/05 00:02:43;;;;;;;14.13;12.93;;;22.00;99.90;;;;;;4933686;29;20223;-83
2021/06/05 00:05:11;;;;;;;13.60;12.50;;;22.00;99.90;;;;;;4933165;29;20286;-83
2021/06/05 00:07:39;;;;;;;13.70;12.50;;;22.00;99.90;;;;;;4950967;29;20207;-83
2021/06/05 00:10:07;;;;;;;15.43;14.13;;;22.10;99.90;;;;;;4959789;29;20178;-83
2021/06/05 00:12:35;;;;;;;15.07;13.88;;;21.80;99.90;;;;;;4957262;29;20686;-84
2021/06/05 00:15:03;;;;;;;17.65;16.15;;;21.80;99.90;;;;;;4948006;29;20773;-83
2021/06/05 00:17:30;;;;;;;20.02;18.33;;;21.60;99.90;;;;;;4931308;29;20582;-81
2021/06/05 00:19:56;;;;;;;16.17;14.68;;;21.60;99.90;;;;;;4947995;29;20266;-81
2021/06/05 00:22:25;;;;;;;16.05;14.55;;;21.40;99.90;;;;;;4930591;29;20203;-81
2021/06/05 00:24:52;;;;;;;16.83;15.25;;;21.40;99.90;;;;;;4948057;29;20227;-81
2021/06/05 00:27:19;;;;;;;19.15;17.35;;;21.40;99.90;;;;;;4947423;29;20266;-81
2021/06/05 00:29:46;;;;;;;19.48;17.83;;;21.50;99.90;;;;;;4931644;29;20203;-80
2021/06/05 00:32:12;;;;;;;20.45;18.52;;;21.50;99.90;;;;;;4948351;29;20226;-81
2021/06/05 00:34:41;;;;;;;17.50;16.02;;;21.60;99.90;;;;;;4930031;29;20227;-81
2021/06/05 00:37:08;;;;;;;20.33;18.33;;;21.40;99.90;;;;;;4948051;29;20211;-81
2021/06/05 00:39:36;;;;;;;17.67;16.05;;;21.40;99.90;;;;;;4929130;29;20222;-81
2021/06/05 00:42:04;;;;;;;15.05;13.73;;;21.30;99.90;;;;;;4928845;29;20196;-81
2021/06/05 00:44:30;;;;;;;16.45;14.77;;;21.20;99.90;;;;;;4946271;29;20226;-83
2021/06/05 00:46:58;;;;;;;16.25;14.90;;;21.00;99.90;;;;;;4914891;29;20203;-81
2021/06/05 00:49:25;;;;;;;14.05;12.77;;;21.00;99.90;;;;;;4930210;29;20228;-81
2021/06/05 00:51:55;;;;;;;15.55;14.13;;;21.10;99.90;;;;;;4929224;29;20195;-81
2021/06/05 00:54:28;;;;;;;17.65;16.15;;;21.10;99.90;;;;;;4947474;29;20226;-82
2021/06/05 00:56:59;;;;;;;17.98;16.48;;;21.00;99.90;;;;;;4915434;29;20208;-81
2021/06/05 00:59:31;;;;;;;15.68;14.18;;;20.90;99.90;;;;;;4931239;29;20203;-81
2021/06/05 01:01:58;;;;;;;17.48;15.88;;;21.00;99.90;;;;;;4930455;29;20208;-81
2021/06/05 01:04:25;;;;;;;15.05;13.85;;;21.00;99.90;;;;;;4947438;29;20267;-81
2021/06/05 01:06:55;;;;;;;15.23;13.88;;;21.10;99.90;;;;;;4929572;29;20644;-81
2021/06/05 01:09:28;;;;;;;14.75;13.52;;;21.10;99.90;;;;;;4933354;29;20203;-81
2021/06/05 01:12:03;;;;;;;14.55;13.25;;;21.00;99.90;;;;;;4946194;29;20282;-81
2021/06/05 01:14:44;;;;;;;16.65;13.98;;;21.00;99.90;;;;;;4924101;29;20221;-81
2021/06/05 01:17:18;;;;;;;19.80;17.95;;;21.00;99.90;;;;;;4938323;29;20271;-81
2021/06/05 01:19:51;;;;;;;19.83;18.25;;;21.00;99.90;;;;;;4956454;29;20198;-80
2021/06/05 01:22:32;;;;;;;16.85;15.55;;;20.80;99.90;;;;;;4952199;29;20199;-80
2021/06/05 01:25:44;;;;;;;14.15;12.70;;;20.70;99.90;;;;;;4935793;29;20316;-81
2021/06/05 01:28:18;;;;;;;12.43;11.23;;;20.50;99.90;;;;;;4923838;29;20200;-81
2021/06/05 01:30:48;;;;;;;12.35;11.00;;;20.50;99.90;;;;;;4953949;29;20214;-80
2021/06/05 01:33:19;;;;;;;14.05;12.85;;;20.70;99.90;;;;;;4935267;29;20230;-81
2021/06/05 01:35:50;;;;;;;10.52;9.60;;;20.60;99.90;;;;;;4929956;29;20223;-81
2021/06/05 01:38:22;;;;;;;11.82;10.65;;;20.60;99.90;;;;;;4929896;29;20215;-81
2021/06/05 01:40:51;;;;;;;10.77;9.77;;;20.70;99.90;;;;;;4909971;29;20211;-81
2021/06/05 01:43:24;;;;;;;9.82;9.02;;;20.70;99.90;;;;;;4906922;29;20231;-81
2021/06/05 01:45:56;;;;;;;11.48;10.45;;;20.70;99.90;;;;;;4928565;29;20214;-81
2021/06/05 01:48:24;;;;;;;13.07;10.07;;;20.70;99.90;;;;;;4945127;29;20227;-81
2021/06/05 01:50:53;;;;;;;11.68;10.52;;;20.70;99.90;;;;;;4929771;29;20264;-81
2021/06/05 01:53:24;;;;;;;11.55;10.45;;;20.70;99.90;;;;;;4946054;29;20223;-81
2021/06/05 01:55:56;;;;;;;16.48;14.85;;;20.50;99.90;;;;;;4946072;29;20203;-81
2021/06/05 01:58:30;;;;;;;13.60;12.57;;;20.70;99.90;;;;;;4924795;29;20222;-80
2021/06/05 02:01:05;;;;;;;11.57;10.57;;;20.60;99.90;;;;;;4912301;29;20223;-81
2021/06/05 02:03:39;;;;;;;12.13;11.13;;;20.50;99.90;;;;;;4926534;29;68432;-81
2021/06/05 02:06:21;;;;;;;12.05;11.00;;;20.50;99.90;;;;;;4929093;29;20231;-81
2021/06/05 02:08:49;;;;;;;11.32;10.43;;;20.50;99.90;;;;;;4928419;29;20218;-81
2021/06/05 02:11:20;;;;;;;11.15;10.07;;;20.50;99.90;;;;;;4932512;29;20203;-81
2021/06/05 02:13:58;;;;;;;12.77;11.70;;;20.50;99.90;;;;;;4939684;29;20211;-80
2021/06/05 02:16:30;;;;;;;13.60;12.40;;;20.60;99.90;;;;;;4944793;29;20262;-81
2021/06/05 02:19:05;;;;;;;14.30;13.10;;;20.60;99.90;;;;;;4928463;29;20203;-81
2021/06/05 02:21:45;;;;;;;14.60;12.95;;;20.50;99.90;;;;;;4920015;29;20551;-81
2021/06/05 02:24:17;;;;;;;15.27;13.73;;;20.40;99.90;;;;;;4928817;29;20226;-81
2021/06/05 02:26:46;;;;;;;14.52;13.32;;;20.40;99.90;;;;;;4928949;29;20302;-81
2021/06/05 02:29:19;;;;;;;14.50;13.35;;;20.50;99.90;;;;;;4929358;29;20195;-81
2021/06/05 02:31:47;;;;;;;15.38;14.07;;;20.40;99.90;;;;;;4928747;29;20204;-81
2021/06/05 02:34:19;;;;;;;14.60;13.30;;;20.40;99.90;;;;;;4928269;29;20322;-81
2021/06/05 02:36:48;;;;;;;12.23;11.30;;;20.30;99.90;;;;;;4928896;29;20285;-81
2021/06/05 02:39:21;;;;;;;12.10;11.10;;;20.40;99.90;;;;;;4928610;29;20222;-81
2021/06/05 02:41:54;;;;;;;15.32;13.90;;;20.30;99.90;;;;;;4944996;29;20263;-81
2021/06/05 02:44:26;;;;;;;14.10;12.65;;;20.30;99.90;;;;;;4932571;28;20234;-80
2021/06/05 02:46:57;;;;;;;13.98;12.68;;;20.30;99.90;;;;;;4960231;28;20239;-81
2021/06/05 02:49:30;;;;;;;15.60;14.23;;;20.30;99.90;;;;;;4935500;29;20200;-81
2021/06/05 02:52:01;;;;;;;12.18;11.10;;;20.40;99.90;;;;;;4942488;29;20758;-81
2021/06/05 02:54:34;;;;;;;13.70;12.60;;;20.40;99.90;;;;;;4925452;29;20226;-80
2021/06/05 02:57:04;;;;;;;14.65;13.43;;;20.40;99.90;;;;;;4924924;29;20195;-81
2021/06/05 02:59:32;;;;;;;17.85;16.45;;;20.40;99.90;;;;;;4927395;29;20207;-81
2021/06/05 03:02:00;;;;;;;14.80;13.60;;;20.40;99.90;;;;;;4913410;29;20207;-81
2021/06/05 03:04:29;;;;;;;14.45;13.20;;;20.40;99.90;;;;;;4920727;29;20251;-81
2021/06/05 03:06:57;;;;;;;16.27;14.68;;;20.30;99.90;;;;;;4909232;29;20220;-81
2021/06/05 03:09:24;;;;;;;18.30;16.60;;;20.30;99.90;;;;;;4909078;29;20231;-81
2021/06/05 03:11:54;;;;;;;18.10;16.40;;;20.20;99.90;;;;;;4927963;29;20285;-81
2021/06/05 03:14:24;;;;;;;19.10;14.05;;;20.20;99.90;;;;;;4936588;29;20332;-81
2021/06/05 03:16:53;;;;;;;15.13;13.93;;;19.90;99.90;;;;;;4948378;29;20682;-81
2021/06/05 03:19:20;;;;;;;13.10;11.90;;;19.80;99.90;;;;;;4931677;29;20207;-83
2021/06/05 03:21:50;;;;;;;11.23;10.32;;;19.80;99.90;;;;;;4931700;29;20267;-83
2021/06/05 03:24:27;;;;;;;12.98;11.77;;;19.90;99.90;;;;;;4933450;29;20215;-83
2021/06/05 03:26:55;;;;;;;14.13;12.50;;;20.00;99.90;;;;;;4950088;29;20231;-83
2021/06/05 03:29:24;;;;;;;12.65;11.50;;;20.00;99.90;;;;;;4932789;29;20207;-83
2021/06/05 03:31:57;;;;;;;11.95;10.73;;;20.00;99.90;;;;;;4931476;29;20290;-82
2021/06/05 03:34:28;;;;;;;12.07;11.05;;;20.00;99.90;;;;;;4917448;29;20227;-83
2021/06/05 03:36:55;;;;;;;11.85;10.70;;;20.10;99.90;;;;;;4929570;29;20716;-83
2021/06/05 03:39:23;;;;;;;12.50;11.10;;;20.10;99.90;;;;;;4929767;29;20204;-83
2021/06/05 03:41:53;;;;;;;11.10;10.10;;;20.20;99.90;;;;;;4931313;29;20258;-83
2021/06/05 03:44:23;;;;;;;10.93;10.02;;;20.20;99.90;;;;;;4931320;29;20219;-83
2021/06/05 03:46:52;;;;;;;10.75;9.60;;;20.20;99.90;;;;;;4951087;29;20255;-82
2021/06/05 03:49:21;;;;;;;12.30;11.18;;;20.20;99.90;;;;;;4927441;29;20208;-83
2021/06/05 03:51:48;;;;;;;12.05;11.05;;;20.30;99.90;;;;;;4922701;29;20207;-83
2021/06/05 03:54:16;;;;;;;12.30;10.90;;;20.40;99.90;;;;;;4934724;29;20247;-83
2021/06/05 03:56:43;;;;;;;14.32;9.68;;;20.50;99.90;;;;;;4948907;29;20585;-82
2021/06/05 03:59:10;;;;;;;11.27;10.20;;;20.50;99.90;;;;;;4946189;29;20210;-83
2021/06/05 04:01:37;;;;;;;15.05;10.40;;;20.60;99.90;;;;;;4945847;29;20291;-83
2021/06/05 04:04:05;;;;;;;10.63;9.43;;;20.60;99.90;;;;;;4930439;29;20322;-83
2021/06/05 04:06:33;;;;;;;9.43;8.68;;;20.50;99.90;;;;;;4914519;29;20250;-82
2021/06/05 04:09:01;;;;;;;9.43;8.48;;;20.60;99.90;;;;;;4945419;29;20214;-83
2021/06/05 04:11:29;;;;;;;11.60;9.30;;;20.60;99.90;;;;;;4946701;29;20216;-83
2021/06/05 04:13:57;;;;;;;9.57;8.82;;;20.60;99.90;;;;;;4953405;28;20219;-83
2021/06/05 04:16:24;;;;;;;10.63;9.63;;;20.60;99.90;;;;;;4939649;29;20240;-82
2021/06/05 04:18:51;;;;;;;9.27;8.30;;;20.60;99.90;;;;;;4941250;29;20579;-83
2021/06/05 04:21:20;;;;;;;10.05;9.10;;;20.60;99.90;;;;;;4942498;29;20242;-82
2021/06/05 04:23:48;;;;;;;13.18;10.48;;;20.60;99.90;;;;;;4943291;29;20225;-83
2021/06/05 04:26:15;;;;;;;13.02;9.65;;;20.70;99.90;;;;;;4930280;29;20242;-84
2021/06/05 04:28:42;;;;;;;11.15;9.10;;;20.70;99.90;;;;;;4929948;29;20200;-84
2021/06/05 04:31:11;;;;;;;11.15;10.13;;;20.70;99.90;;;;;;4929379;29;20207;-84
2021/06/05 04:33:38;;;;;;;10.50;9.60;;;20.70;99.90;;;;;;4930771;29;20219;-83
2021/06/05 04:36:08;;;;;;;9.18;8.48;;;20.70;99.90;;;;;;4947935;29;20235;-83
2021/06/05 04:38:36;;;;;;;11.27;10.38;;;20.80;99.90;;;;;;4947039;29;20202;-82
2021/06/05 04:41:04;;;;;;;10.15;9.27;;;20.80;99.90;;;;;;4916110;29;20678;-82
2021/06/05 04:43:31;;;;;;;9.90;9.10;;;20.90;99.90;;;;;;4948667;29;20219;-83
2021/06/05 04:45:59;;;;;;;9.57;8.57;;;20.90;99.90;;;;;;4930693;29;20642;-82
2021/06/05 04:48:26;;;;;;;10.13;8.77;;;20.90;99.90;;;;;;4931535;29;20199;-83
2021/06/05 04:50:53;;;;;;;10.95;9.88;;;20.90;99.90;;;;;;4948796;29;20698;-83
2021/06/05 04:53:23;;;;;;;9.70;8.98;;;21.00;99.90;;;;;;4930583;29;20259;-83
2021/06/05 04:55:50;;;;;;;9.50;8.70;;;20.90;99.90;;;;;;4929618;29;20223;-83
2021/06/05 04:58:19;;;;;;;10.00;9.02;;;21.00;99.90;;;;;;4927673;29;20227;-84
2021/06/05 05:00:48;;;;;;;10.45;8.77;;;21.00;99.90;;;;;;4910195;29;20199;-84
2021/06/05 05:03:17;;;;;;;9.45;8.38;;;21.00;99.90;;;;;;4910520;29;20236;-83
2021/06/05 05:05:45;;;;;;;10.30;9.40;;;21.00;99.90;;;;;;4927116;29;20270;-83
2021/06/05 05:08:13;;;;;;;10.27;9.45;;;21.00;99.90;;;;;;4927811;29;20216;-85
2021/06/05 05:10:44;;;;;;;10.65;9.63;;;21.10;99.90;;;;;;4927089;29;20694;-85
2021/06/05 05:13:13;;;;;;;9.65;8.88;;;21.20;99.90;;;;;;4911134;29;20294;-84
2021/06/05 05:15:41;;;;;;;11.38;10.18;;;21.20;99.90;;;;;;4909349;29;20272;-84
2021/06/05 05:18:08;;;;;;;10.52;9.70;;;21.30;99.90;;;;;;4912414;29;20232;-84
2021/06/05 05:20:37;;;;;;;13.35;11.05;;;21.30;99.90;;;;;;4928005;29;20260;-83
2021/06/05 05:23:04;;;;;;;12.07;10.98;;;21.20;99.90;;;;;;4912584;29;20231;-84
2021/06/05 05:25:31;;;;;;;10.00;9.20;;;21.00;99.90;;;;;;4927303;29;20231;-84
2021/06/05 05:28:04;;;;;;;13.05;9.30;;;21.10;99.90;;;;;;4927592;29;20268;-84
2021/06/05 05:30:34;;;;;;;10.15;9.30;;;21.20;99.90;;;;;;4909124;29;20204;-84
2021/06/05 05:33:04;;;;;;;10.50;9.48;;;21.30;99.90;;;;;;4925886;29;20208;-84
2021/06/05 05:35:32;;;;;;;9.55;8.65;;;21.30;99.90;;;;;;4925286;29;20192;-84
2021/06/05 05:38:00;;;;;;;9.30;8.50;;;21.40;99.90;;;;;;4937502;29;20208;-84
2021/06/05 05:40:28;;;;;;;10.77;9.75;;;21.50;99.90;;;;;;4944469;29;20640;-84
2021/06/05 05:42:55;;;;;;;9.98;9.18;;;21.50;99.90;;;;;;4945388;29;20290;-84
2021/06/05 05:45:23;;;;;;;11.25;10.35;;;21.50;99.90;;;;;;4930014;29;20200;-83
2021/06/05 05:47:50;;;;;;;12.73;11.68;;;21.70;99.90;;;;;;4947265;29;20199;-83
2021/06/05 05:50:20;;;;;;;13.43;12.23;;;21.70;99.90;;;;;;4944169;29;20324;-84
2021/06/05 05:52:47;;;;;;;13.70;12.43;;;21.70;99.90;;;;;;4945109;29;20221;-83
2021/06/05 05:55:15;;;;;;;12.57;11.48;;;21.70;99.90;;;;;;4943334;29;20199;-83
2021/06/05 05:57:42;;;;;;;13.45;12.25;;;21.70;99.90;;;;;;4920570;29;20199;-83
2021/06/05 06:00:12;;;;;;;13.60;12.40;;;21.70;99.90;;;;;;4929744;29;20200;-83
2021/06/05 06:02:41;;;;;;;15.93;14.52;;;21.70;99.90;;;;;;4892535;29;20200;-83
2021/06/05 06:05:10;;;;;;;14.95;13.70;;;21.80;99.90;;;;;;4957971;29;20246;-84
2021/06/05 06:07:38;;;;;;;13.88;12.77;;;21.80;99.90;;;;;;4944060;28;20191;-83
2021/06/05 06:10:07;;;;;;;16.23;14.88;;;21.90;99.90;;;;;;4952702;28;20251;-84
2021/06/05 06:12:34;;;;;;;16.98;15.60;;;21.90;99.90;;;;;;4939727;29;20203;-84
2021/06/05 06:15:01;;;;;;;16.00;14.60;;;22.00;99.90;;;;;;4939292;29;20243;-83
2021/06/05 06:17:28;;;;;;;22.88;20.80;;;22.00;99.90;;;;;;4914189;29;20468;-84
2021/06/05 06:19:54;;;;;;;16.23;14.82;;;22.10;99.90;;;;;;4932049;29;20203;-83
2021/06/05 06:22:21;;;;;;;16.75;15.27;;;22.10;99.90;;;;;;4930625;29;20295;-83
2021/06/05 06:24:49;;;;;;;16.35;15.07;;;22.20;99.90;;;;;;4926234;29;20283;-83
2021/06/05 06:27:16;;;;;;;17.98;16.58;;;22.20;99.90;;;;;;4922894;29;20215;-86
2021/06/05 06:29:42;;;;;;;19.75;18.25;;;22.20;99.90;;;;;;4928545;29;20200;-79
2021/06/05 06:32:09;;;;;;;17.27;15.88;;;22.20;99.90;;;;;;4931031;29;20243;-81
2021/06/05 06:34:36;;;;;;;15.98;14.55;;;22.20;99.90;;;;;;4944330;29;20223;-80
2021/06/05 06:37:06;;;;;;;16.77;15.15;;;22.20;99.90;;;;;;4947682;29;20211;-80
2021/06/05 06:39:33;;;;;;;15.80;14.60;;;22.20;99.90;;;;;;4933075;29;20187;-80
2021/06/05 06:42:01;;;;;;;17.25;15.63;;;22.20;99.90;;;;;;4932346;29;20297;-80
2021/06/05 06:44:28;;;;;;;17.35;15.73;;;22.30;99.90;;;;;;4946391;29;20238;-80
2021/06/05 06:46:55;;;;;;;19.95;18.17;;;22.40;99.90;;;;;;4952171;29;20223;-80
2021/06/05 06:49:23;;;;;;;16.33;14.88;;;22.50;99.90;;;;;;4950212;29;20569;-80
2021/06/05 06:51:51;;;;;;;16.10;14.85;;;22.50;99.90;;;;;;4952350;29;20206;-80
2021/06/05 06:54:18;;;;;;;15.93;14.38;;;22.50;99.90;;;;;;4955753;28;20335;-80
2021/06/05 06:56:45;;;;;;;17.00;15.50;;;22.50;99.90;;;;;;4954716;29;20199;-80
2021/06/05 06:59:13;;;;;;;16.23;14.75;;;22.60;99.90;;;;;;4932484;29;20462;-80
2021/06/05 07:01:41;;;;;;;18.35;16.52;;;22.60;99.90;;;;;;4943007;29;20212;-81
2021/06/05 07:04:08;;;;;;;14.85;13.65;;;22.80;99.90;;;;;;4963509;23;20243;-83
2021/06/05 07:06:35;;;;;;;14.85;13.32;;;22.90;99.90;;;;;;4944270;29;20310;-82
2021/06/05 07:09:02;;;;;;;18.23;16.70;;;22.90;99.90;;;;;;4947955;29;20200;-81
2021/06/05 07:11:32;;;;;;;16.50;15.05;;;23.00;99.90;;;;;;4947364;29;20251;-82
2021/06/05 07:14:01;;;;;;;18.75;16.90;;;23.00;99.90;;;;;;4929670;29;20223;-84
2021/06/05 07:16:31;;;;;;;23.65;21.73;;;23.10;99.90;;;;;;4912696;29;20242;-80
2021/06/05 07:18:58;;;;;;;17.70;16.17;;;23.40;99.90;;;;;;4926283;29;20197;-82
2021/06/05 07:21:26;;;;;;;17.92;16.42;;;23.50;99.90;;;;;;4925785;29;20192;-81
2021/06/05 07:23:53;;;;;;;18.40;16.67;;;23.40;99.90;;;;;;4932502;29;20226;-81
2021/06/05 07:26:22;;;;;;;15.75;14.35;;;23.40;99.90;;;;;;4942662;29;20231;-82
2021/06/05 07:28:51;;;;;;;14.18;13.00;;;23.40;99.90;;;;;;4944600;29;20238;-84
2021/06/05 07:31:21;;;;;;;13.45;12.25;;;23.50;99.90;;;;;;4944316;29;20245;-81
2021/06/05 07:33:50;;;;;;;13.73;12.63;;;23.40;99.90;;;;;;4946164;29;20239;-83
2021/06/05 07:36:21;;;;;;;15.30;13.98;;;23.50;99.90;;;;;;4946405;29;20202;-84
2021/06/05 07:38:48;;;;;;;15.40;13.75;;;23.70;99.90;;;;;;4950789;29;20207;-83
2021/06/05 07:41:15;;;;;;;13.60;12.50;;;23.80;99.90;;;;;;4948540;29;20203;-83
2021/06/05 07:43:42;;;;;;;16.40;15.00;;;24.00;99.90;;;;;;4943382;29;20601;-82
2021/06/05 07:46:09;;;;;;;13.50;12.35;;;23.90;99.90;;;;;;4943912;29;20259;-83
2021/06/05 07:48:36;;;;;;;14.60;13.40;;;23.90;99.90;;;;;;4958777;29;20402;-82
2021/06/05 07:51:06;;;;;;;14.48;13.38;;;23.90;99.90;;;;;;4953507;29;20203;-83
2021/06/05 07:53:33;;;;;;;16.58;15.20;;;23.90;99.90;;;;;;4945749;29;20265;-82
2021/06/05 07:56:00;;;;;;;21.10;19.30;;;24.10;99.90;;;;;;4945572;29;20270;-83
2021/06/05 07:58:27;;;;;;;14.05;12.65;;;24.20;99.90;;;;;;4955775;29;20214;-81
2021/06/05 08:00:55;;;;;;;13.55;12.40;;;24.00;99.90;;;;;;4958385;29;20224;-83
2021/06/05 08:03:22;;;;;;;13.25;12.15;;;24.00;99.90;;;;;;4957229;29;20199;-84
2021/06/05 08:05:49;;;;;;;16.75;15.23;;;24.10;99.90;;;;;;4957296;29;20215;-84
2021/06/05 08:08:18;;;;;;;13.35;11.38;;;24.30;99.90;;;;;;4958403;29;20207;-80
2021/06/05 08:10:51;;;;;;;15.52;14.13;;;24.30;99.90;;;;;;4954684;29;20199;-83
2021/06/05 08:13:18;;;;;;;14.75;13.43;;;24.30;99.90;;;;;;4951435;29;20214;-83
2021/06/05 08:15:48;;;;;;;14.70;13.32;;;24.30;99.90;;;;;;4951329;29;20250;-82
2021/06/05 08:18:17;;;;;;;13.85;12.65;;;24.40;99.90;;;;;;4946624;29;20207;-83
2021/06/05 08:20:46;;;;;;;14.45;13.25;;;24.60;99.90;;;;;;4945341;29;20667;-81
2021/06/05 08:23:14;;;;;;;15.02;13.77;;;24.60;99.90;;;;;;4943414;29;20199;-81
2021/06/05 08:25:42;;;;;;;14.80;13.27;;;24.70;99.90;;;;;;4942583;29;20203;-80
2021/06/05 08:28:09;;;;;;;15.23;13.73;;;24.70;99.90;;;;;;4942926;29;20223;-81
2021/06/05 08:30:39;;;;;;;13.93;12.77;;;24.70;99.90;;;;;;4945402;29;20704;-83
2021/06/05 08:33:06;;;;;;;14.57;13.27;;;24.70;99.90;;;;;;4949121;29;20207;-83
2021/06/05 08:35:33;;;;;;;14.02;12.73;;;24.90;99.90;;;;;;4953017;29;20235;-84
2021/06/05 08:38:00;;;;;;;13.13;11.73;;;24.90;99.90;;;;;;4933175;29;20294;-83
2021/06/05 08:40:40;;;;;;;15.05;13.70;;;24.90;99.90;;;;;;4945934;29;20670;-84
2021/06/05 08:43:09;;;;;;;12.70;11.60;;;24.90;99.90;;;;;;4950184;29;20209;-84
2021/06/05 08:45:36;;;;;;;17.45;13.48;;;25.00;99.90;;;;;;4930627;29;20724;-79
2021/06/05 08:48:05;;;;;;;16.65;15.27;;;25.30;99.90;;;;;;4943061;29;20207;-83
2021/06/05 08:50:32;;;;;;;16.42;14.88;;;25.60;99.90;;;;;;4927972;29;20199;-83
2021/06/05 08:53:03;;;;;;;13.93;12.90;;;25.70;99.90;;;;;;4940453;29;20243;-82
2021/06/05 08:55:36;;;;;;;14.07;13.02;;;25.60;99.90;;;;;;4943826;29;20247;-83
2021/06/05 08:58:27;;;;;;;11.85;10.90;;;25.70;99.90;;;;;;4941121;29;20199;-84
2021/06/05 09:00:57;;;;;;;14.10;12.80;;;25.60;99.90;;;;;;4944407;29;20349;-83
2021/06/05 09:03:28;;;;;;;13.25;11.93;;;25.70;99.90;;;;;;4952381;29;20203;-83
2021/06/05 09:06:00;;;;;;;13.23;12.15;;;25.70;99.90;;;;;;4949855;29;20215;-82
2021/06/05 09:08:27;;;;;;;12.23;11.25;;;25.70;99.90;;;;;;4944399;29;20203;-80
2021/06/05 09:10:56;;;;;;;13.43;12.10;;;25.80;99.90;;;;;;4945258;29;20302;-83
2021/06/05 09:13:24;;;;;;;13.65;12.45;;;25.80;99.90;;;;;;4960911;28;20203;-84
2021/06/05 09:16:23;;;;;;;11.60;10.70;;;25.90;99.90;;;;;;4961432;28;20199;-82
2021/06/05 09:18:52;;;;;;;11.15;10.23;;;26.00;99.90;;;;;;4962971;28;20209;-83
2021/06/05 09:21:27;;;;;;;13.05;11.20;;;26.10;99.90;;;;;;4965760;29;20222;-83
2021/06/05 09:24:09;;;;;;;11.95;10.80;;;26.00;99.90;;;;;;4948778;29;20210;-83
2021/06/05 09:26:36;;;;;;;12.18;11.02;;;26.00;99.90;;;;;;4945047;29;20223;-83
2021/06/05 09:29:13;;;;;;;14.38;13.10;;;26.00;99.90;;;;;;4943929;29;20211;-82
2021/06/05 09:31:55;;;;;;;13.90;12.68;;;26.00;99.90;;;;;;4943541;29;20210;-84
2021/06/05 09:34:24;;;;;;;12.20;11.30;;;26.10;99.90;;;;;;4960066;28;20249;-82
2021/06/05 09:36:51;;;;;;;13.88;12.68;;;26.00;99.90;;;;;;4946065;29;20606;-83
2021/06/05 09:39:38;;;;;;;14.55;13.43;;;26.00;99.90;;;;;;4941084;29;20311;-81
2021/06/05 09:42:11;;;;;;;14.68;11.65;;;26.10;99.90;;;;;;4943875;29;20210;-83
2021/06/05 09:44:46;;;;;;;13.70;12.60;;;26.00;99.90;;;;;;4954836;28;20242;-81
2021/06/05 09:47:24;;;;;;;14.70;13.60;;;26.00;99.90;;;;;;4943143;29;20234;-81
2021/06/05 09:49:59;;;;;;;16.02;14.63;;;26.20;99.90;;;;;;4959652;29;20203;-82
2021/06/05 09:52:34;;;;;;;16.10;14.60;;;26.30;99.90;;;;;;4945641;28;20634;-82
2021/06/05 09:55:26;;;;;;;18.00;16.48;;;26.10;99.90;;;;;;4945083;29;20233;-80
2021/06/05 09:57:55;;;;;;;18.52;17.02;;;26.30;99.90;;;;;;4954312;29;20227;-81
2021/06/05 10:00:27;;;;;;;17.38;15.77;;;26.40;99.90;;;;;;4944974;29;20195;-82
2021/06/05 10:03:13;;;;;;;16.02;14.38;;;26.30;99.90;;;;;;4943930;29;20200;-80
2021/06/05 10:05:42;;;;;;;17.40;15.80;;;26.40;99.90;;;;;;4948414;29;20199;-83
2021/06/05 10:08:27;;;;;;;17.20;15.70;;;26.40;99.90;;;;;;4949449;29;20200;-81
2021/06/05 10:11:04;;;;;;;17.58;16.02;;;26.60;99.90;;;;;;4943311;29;20610;-82
2021/06/05 10:13:35;;;;;;;19.13;17.40;;;26.50;99.90;;;;;;4943458;29;20209;-81
2021/06/05 10:16:09;;;;;;;19.75;18.17;;;26.30;99.90;;;;;;4945496;29;20197;-84
2021/06/05 10:18:41;;;;;;;21.42;19.45;;;26.20;99.90;;;;;;4951429;29;20463;-83
2021/06/05 10:21:16;;;;;;;20.73;18.92;;;26.20;99.90;;;;;;4947053;29;20202;-83
2021/06/05 10:23:46;;;;;;;17.58;15.98;;;25.90;99.90;;;;;;4927345;29;20224;-82
2021/06/05 10:26:21;;;;;;;22.67;20.75;;;25.70;99.90;;;;;;4943758;29;20302;-81
2021/06/05 10:28:53;;;;;;;25.63;23.52;;;25.50;99.90;;;;;;4939256;29;20286;-83
2021/06/05 10:31:23;;;;;;;21.75;19.90;;;25.40;99.90;;;;;;4924532;29;20212;-82
2021/06/05 10:33:54;;;;;;;27.83;25.10;;;25.20;99.90;;;;;;4939876;29;20243;-82
2021/06/05 10:36:26;;;;;;;27.40;24.75;;;25.10;99.90;;;;;;4941780;29;20207;-82
2021/06/05 10:38:57;;;;;;;29.70;27.17;;;25.20;99.90;;;;;;4941873;29;20306;-83
2021/06/05 10:41:29;;;;;;;33.50;30.63;;;25.00;99.90;;;;;;4941583;29;20199;-82
2021/06/05 10:43:56;;;;;;;35.65;32.40;;;24.90;99.90;;;;;;4942806;29;20238;-84
2021/06/05 10:46:35;;;;;;;38.15;34.97;;;25.10;99.90;;;;;;4942498;29;20830;-83
2021/06/05 10:49:10;;;;;;;36.47;32.58;;;24.80;99.90;;;;;;4937970;29;20243;-84
2021/06/05 10:51:42;;;;;;;35.05;32.17;;;24.50;99.90;;;;;;4944560;29;20218;-82
2021/06/05 10:54:15;;;;;;;37.47;33.95;;;24.20;99.90;;;;;;4945843;29;20780;-84
2021/06/05 10:56:59;;;;;;;40.65;37.30;;;23.80;99.90;;;;;;4940798;29;20184;-80
2021/06/05 10:59:57;;;;;;;38.20;34.67;;;23.80;99.90;;;;;;4953578;29;20226;-84
2021/06/05 11:02:39;;;;;;;38.17;34.58;;;23.90;99.90;;;;;;4898622;29;20231;-82
2021/06/05 11:05:41;;;;;;;41.55;37.67;;;23.50;99.90;;;;;;4949701;29;20246;-83
2021/06/05 11:08:45;;;;;;;33.85;31.05;;;23.40;99.90;;;;;;4954257;29;20254;-85
2021/06/05 11:11:44;;;;;;;41.80;38.22;;;23.40;99.90;;;;;;4960089;29;20194;-84
2021/06/05 11:14:40;;;;;;;39.22;36.00;;;23.50;99.90;;;;;;4977802;28;20229;-85
2021/06/05 11:17:27;;;;;;;39.35;35.78;;;23.20;99.90;;;;;;4959857;28;20200;-88
2021/06/05 11:20:39;;;;;;;43.50;39.92;;;23.20;99.90;;;;;;4957544;28;20175;-83
2021/06/05 11:23:22;;;;;;;42.65;38.92;;;23.20;99.90;;;;;;4953465;28;20202;-86
2021/06/05 11:25:53;;;;;;;41.28;37.67;;;22.80;99.90;;;;;;4955236;28;20211;-85
2021/06/05 11:28:45;;;;;;;43.67;39.53;;;22.60;99.90;;;;;;4954435;29;20211;-82
2021/06/05 11:31:35;;;;;;;40.92;37.00;;;22.40;99.90;;;;;;4962817;29;20749;-82
2021/06/05 11:34:02;;;;;;;38.97;35.70;;;21.80;99.90;;;;;;4971512;28;20243;-81
2021/06/05 11:36:41;;;;;;;39.20;35.63;;;21.70;99.90;;;;;;4971084;29;20194;-84
2021/06/05 11:39:14;;;;;;;38.50;35.10;;;21.60;99.90;;;;;;4971541;29;20202;-80
2021/06/05 11:41:49;;;;;;;42.60;38.53;;;21.40;99.90;;;;;;4965786;29;20206;-82
2021/06/05 11:44:27;;;;;;;40.00;36.35;;;21.30;99.90;;;;;;4958680;29;20227;-82
2021/06/05 11:46:56;;;;;;;43.63;39.40;;;21.30;99.90;;;;;;4955490;29;20231;-84
2021/06/05 11:50:19;;;;;;;44.20;40.05;;;21.30;99.90;;;;;;4956466;29;20341;-84
2021/06/05 11:52:51;;;;;;;44.30;40.28;;;21.50;99.90;;;;;;4952663;29;20196;-82
2021/06/05 11:55:39;;;;;;;45.63;41.35;;;21.40;99.90;;;;;;4956515;29;20242;-82
2021/06/05 11:58:11;;;;;;;34.30;31.20;;;21.60;99.90;;;;;;4952466;29;20224;-83
2021/06/05 12:00:40;;;;;;;41.08;37.35;;;21.60;99.90;;;;;;4950475;29;20226;-82
2021/06/05 12:03:10;;;;;;;43.38;39.53;;;21.50;99.90;;;;;;4953111;29;20260;-80
2021/06/05 12:05:42;;;;;;;36.53;33.20;;;21.50;99.90;;;;;;4956610;29;20231;-83
2021/06/05 12:08:22;;;;;;;38.45;35.03;;;21.40;99.90;;;;;;4954979;29;20668;-81
2021/06/05 12:10:54;;;;;;;40.72;37.30;;;21.40;99.90;;;;;;4954105;29;20554;-84
2021/06/05 12:13:29;;;;;;;39.55;35.85;;;21.50;99.90;;;;;;4952134;29;20209;-84
2021/06/05 12:16:06;;;;;;;35.30;32.28;;;21.50;99.90;;;;;;4954097;29;20202;-84
2021/06/05 12:18:34;;;;;;;43.65;39.83;;;21.50;99.90;;;;;;4956333;29;20230;-83
2021/06/05 12:21:06;;;;;;;34.55;31.55;;;21.60;99.90;;;;;;4956014;29;20211;-83
2021/06/05 12:23:37;;;;;;;39.47;35.72;;;21.60;99.90;;;;;;4950976;29;20207;-81
2021/06/05 12:26:06;;;;;;;35.83;32.58;;;21.60;99.90;;;;;;4955417;29;20242;-83
2021/06/05 12:28:38;;;;;;;31.80;28.90;;;21.60;99.90;;;;;;4960072;29;20217;-79
2021/06/05 12:31:14;;;;;;;29.75;26.90;;;21.60;99.90;;;;;;4957860;28;20218;-82
2021/06/05 12:33:53;;;;;;;31.52;28.52;;;21.60;99.90;;;;;;4967131;28;20242;-82
2021/06/05 12:36:23;;;;;;;31.33;28.73;;;21.60;99.90;;;;;;4964838;29;20261;-84
2021/06/05 12:38:54;;;;;;;28.95;26.27;;;21.70;99.90;;;;;;4960759;29;20206;-83
2021/06/05 12:41:24;;;;;;;35.10;31.83;;;21.60;99.90;;;;;;4956723;29;20315;-84
2021/06/05 12:43:52;;;;;;;33.97;30.98;;;21.80;99.90;;;;;;4955628;29;20298;-83
2021/06/05 12:46:23;;;;;;;33.22;30.25;;;21.90;99.90;;;;;;4955472;29;20230;-83
2021/06/05 12:48:53;;;;;;;30.23;27.63;;;21.90;99.90;;;;;;4957252;29;20197;-83